sensor_id;sensor_type;location;lat;lon;timestamp;P1;durP1;ratioP1;P2;durP2;ratioP2
74892;SDS011;63446;56.272;43.922;2023-01-15T00:01:01;11.60;;;2.10;;
74892;SDS011;63446;56.272;43.922;2023-01-15T00:03:29;11.65;;;1.83;;
74892;SDS011;63446;56.272;43.922;2023-01-15T00:05:55;7.75;;;1.52;;
74892;SDS011;63446;56.272;43.922;2023-01-15T00:08:21;8.90;;;1.55;;
74892;SDS011;63446;56.272;43.922;2023-01-15T00:10:48;8.07;;;2.03;;
74892;SDS011;63446;56.272;43.922;2023-01-15T00:13:14;17.45;;;1.80;;
74892;SDS011;63446;56.272;43.922;2023-01-15T00:15:40;12.18;;;1.83;;
74892;SDS011;63446;56.272;43.922;2023-01-15T00:18:05;10.37;;;1.53;;
74892;SDS011;63446;56.272;43.922;2023-01-15T00:20:31;10.90;;;1.73;;
74892;SDS011;63446;56.272;43.922;2023-01-15T00:22:57;14.48;;;1.60;;
74892;SDS011;63446;56.272;43.922;2023-01-15T00:25:23;12.27;;;1.63;;
74892;SDS011;63446;56.272;43.922;2023-01-15T00:28:07;7.05;;;1.58;;
74892;SDS011;63446;56.272;43.922;2023-01-15T00:30:33;13.27;;;1.50;;
74892;SDS011;63446;56.272;43.922;2023-01-15T00:32:59;9.10;;;1.48;;
74892;SDS011;63446;56.272;43.922;2023-01-15T00:35:25;6.78;;;1.30;;
74892;SDS011;63446;56.272;43.922;2023-01-15T00:37:51;11.43;;;1.63;;
74892;SDS011;63446;56.272;43.922;2023-01-15T00:40:17;13.63;;;1.57;;
74892;SDS011;63446;56.272;43.922;2023-01-15T00:42:44;9.50;;;1.65;;
74892;SDS011;63446;56.272;43.922;2023-01-15T00:45:10;12.43;;;1.33;;
74892;SDS011;63446;56.272;43.922;2023-01-15T00:47:40;10.50;;;1.50;;
74892;SDS011;63446;56.272;43.922;2023-01-15T00:50:09;7.90;;;1.67;;
74892;SDS011;63446;56.272;43.922;2023-01-15T00:52:37;18.80;;;1.75;;
74892;SDS011;63446;56.272;43.922;2023-01-15T00:55:03;9.43;;;1.75;;
74892;SDS011;63446;56.272;43.922;2023-01-15T00:57:31;14.95;;;1.77;;
74892;SDS011;63446;56.272;43.922;2023-01-15T00:59:57;11.50;;;1.40;;
74892;SDS011;63446;56.272;43.922;2023-01-15T01:02:22;6.78;;;1.23;;
74892;SDS011;63446;56.272;43.922;2023-01-15T01:04:48;12.00;;;1.23;;
74892;SDS011;63446;56.272;43.922;2023-01-15T01:07:14;12.02;;;1.50;;
74892;SDS011;63446;56.272;43.922;2023-01-15T01:09:40;12.68;;;2.20;;
74892;SDS011;63446;56.272;43.922;2023-01-15T01:12:06;9.10;;;2.10;;
74892;SDS011;63446;56.272;43.922;2023-01-15T01:14:33;13.20;;;1.50;;
74892;SDS011;63446;56.272;43.922;2023-01-15T01:17:02;8.43;;;1.58;;
74892;SDS011;63446;56.272;43.922;2023-01-15T01:19:28;9.50;;;1.75;;
74892;SDS011;63446;56.272;43.922;2023-01-15T01:21:53;12.97;;;2.47;;
74892;SDS011;63446;56.272;43.922;2023-01-15T01:24:20;9.27;;;1.77;;
74892;SDS011;63446;56.272;43.922;2023-01-15T01:26:47;16.42;;;1.75;;
74892;SDS011;63446;56.272;43.922;2023-01-15T01:29:14;15.80;;;2.17;;
74892;SDS011;63446;56.272;43.922;2023-01-15T01:31:43;13.65;;;1.80;;
74892;SDS011;63446;56.272;43.922;2023-01-15T01:34:10;6.28;;;1.75;;
74892;SDS011;63446;56.272;43.922;2023-01-15T01:36:37;17.27;;;2.38;;
74892;SDS011;63446;56.272;43.922;2023-01-15T01:39:05;16.50;;;2.45;;
74892;SDS011;63446;56.272;43.922;2023-01-15T01:41:33;16.73;;;2.07;;
74892;SDS011;63446;56.272;43.922;2023-01-15T01:44:00;12.00;;;2.13;;
74892;SDS011;63446;56.272;43.922;2023-01-15T01:46:35;16.27;;;2.08;;
74892;SDS011;63446;56.272;43.922;2023-01-15T01:49:11;8.48;;;2.33;;
74892;SDS011;63446;56.272;43.922;2023-01-15T01:51:46;20.77;;;2.13;;
74892;SDS011;63446;56.272;43.922;2023-01-15T01:54:16;10.82;;;2.00;;
74892;SDS011;63446;56.272;43.922;2023-01-15T01:56:47;8.35;;;1.73;;
74892;SDS011;63446;56.272;43.922;2023-01-15T01:59:14;10.90;;;1.75;;
74892;SDS011;63446;56.272;43.922;2023-01-15T02:01:45;11.80;;;1.95;;
74892;SDS011;63446;56.272;43.922;2023-01-15T02:04:12;13.80;;;1.53;;
74892;SDS011;63446;56.272;43.922;2023-01-15T02:06:40;12.80;;;1.73;;
74892;SDS011;63446;56.272;43.922;2023-01-15T02:09:07;13.45;;;1.90;;
74892;SDS011;63446;56.272;43.922;2023-01-15T02:11:33;18.15;;;1.88;;
74892;SDS011;63446;56.272;43.922;2023-01-15T02:14:09;10.02;;;2.05;;
74892;SDS011;63446;56.272;43.922;2023-01-15T02:17:09;11.97;;;2.20;;
74892;SDS011;63446;56.272;43.922;2023-01-15T02:22:24;12.73;;;1.85;;
74892;SDS011;63446;56.272;43.922;2023-01-15T02:25:17;10.40;;;1.80;;
74892;SDS011;63446;56.272;43.922;2023-01-15T02:27:51;15.40;;;1.92;;
74892;SDS011;63446;56.272;43.922;2023-01-15T02:30:30;7.13;;;1.63;;
74892;SDS011;63446;56.272;43.922;2023-01-15T02:33:05;9.88;;;1.92;;
74892;SDS011;63446;56.272;43.922;2023-01-15T02:38:16;15.85;;;1.85;;
74892;SDS011;63446;56.272;43.922;2023-01-15T02:40:49;20.60;;;2.10;;
74892;SDS011;63446;56.272;43.922;2023-01-15T02:43:20;9.27;;;1.73;;
74892;SDS011;63446;56.272;43.922;2023-01-15T02:45:51;15.10;;;1.58;;
74892;SDS011;63446;56.272;43.922;2023-01-15T02:48:20;8.70;;;1.58;;
74892;SDS011;63446;56.272;43.922;2023-01-15T02:50:56;18.67;;;2.20;;
74892;SDS011;63446;56.272;43.922;2023-01-15T02:53:29;18.67;;;1.95;;
74892;SDS011;63446;56.272;43.922;2023-01-15T02:56:00;14.10;;;2.10;;
74892;SDS011;63446;56.272;43.922;2023-01-15T02:58:35;12.43;;;2.00;;
74892;SDS011;63446;56.272;43.922;2023-01-15T03:01:07;16.08;;;1.88;;
74892;SDS011;63446;56.272;43.922;2023-01-15T03:09:30;6.57;;;1.53;;
74892;SDS011;63446;56.272;43.922;2023-01-15T03:15:02;11.18;;;1.75;;
74892;SDS011;63446;56.272;43.922;2023-01-15T03:17:58;8.57;;;1.73;;
74892;SDS011;63446;56.272;43.922;2023-01-15T03:20:29;17.67;;;1.70;;
74892;SDS011;63446;56.272;43.922;2023-01-15T03:23:04;14.40;;;1.73;;
74892;SDS011;63446;56.272;43.922;2023-01-15T03:25:37;12.38;;;1.52;;
74892;SDS011;63446;56.272;43.922;2023-01-15T03:28:09;13.27;;;2.00;;
74892;SDS011;63446;56.272;43.922;2023-01-15T03:30:38;12.10;;;1.83;;
74892;SDS011;63446;56.272;43.922;2023-01-15T03:33:05;10.38;;;1.75;;
74892;SDS011;63446;56.272;43.922;2023-01-15T03:38:39;13.25;;;2.03;;
74892;SDS011;63446;56.272;43.922;2023-01-15T03:49:37;13.17;;;1.90;;
74892;SDS011;63446;56.272;43.922;2023-01-15T03:52:23;21.90;;;2.55;;
74892;SDS011;63446;56.272;43.922;2023-01-15T03:55:09;10.40;;;2.47;;
74892;SDS011;63446;56.272;43.922;2023-01-15T03:57:56;13.93;;;2.10;;
74892;SDS011;63446;56.272;43.922;2023-01-15T04:00:37;7.68;;;2.50;;
74892;SDS011;63446;56.272;43.922;2023-01-15T04:03:09;13.10;;;2.30;;
74892;SDS011;63446;56.272;43.922;2023-01-15T04:05:39;12.25;;;2.00;;
74892;SDS011;63446;56.272;43.922;2023-01-15T04:08:07;13.35;;;1.90;;
74892;SDS011;63446;56.272;43.922;2023-01-15T04:10:34;9.18;;;1.88;;
74892;SDS011;63446;56.272;43.922;2023-01-15T04:13:05;23.80;;;2.35;;
74892;SDS011;63446;56.272;43.922;2023-01-15T04:15:31;19.23;;;2.60;;
74892;SDS011;63446;56.272;43.922;2023-01-15T04:17:56;15.68;;;2.10;;
74892;SDS011;63446;56.272;43.922;2023-01-15T04:20:26;18.30;;;2.58;;
74892;SDS011;63446;56.272;43.922;2023-01-15T04:22:53;13.57;;;2.20;;
74892;SDS011;63446;56.272;43.922;2023-01-15T04:25:19;15.02;;;2.13;;
74892;SDS011;63446;56.272;43.922;2023-01-15T04:27:44;14.48;;;2.42;;
74892;SDS011;63446;56.272;43.922;2023-01-15T04:30:10;10.23;;;2.37;;
74892;SDS011;63446;56.272;43.922;2023-01-15T04:32:37;17.30;;;2.45;;
74892;SDS011;63446;56.272;43.922;2023-01-15T04:35:04;12.27;;;2.60;;
74892;SDS011;63446;56.272;43.922;2023-01-15T04:37:30;13.25;;;2.72;;
74892;SDS011;63446;56.272;43.922;2023-01-15T04:39:56;13.57;;;2.70;;
74892;SDS011;63446;56.272;43.922;2023-01-15T04:42:21;16.33;;;2.50;;
74892;SDS011;63446;56.272;43.922;2023-01-15T04:45:06;22.77;;;2.65;;
74892;SDS011;63446;56.272;43.922;2023-01-15T04:47:33;11.20;;;2.30;;
74892;SDS011;63446;56.272;43.922;2023-01-15T04:50:00;17.10;;;2.35;;
74892;SDS011;63446;56.272;43.922;2023-01-15T04:52:25;21.77;;;2.78;;
74892;SDS011;63446;56.272;43.922;2023-01-15T04:54:54;13.47;;;2.53;;
74892;SDS011;63446;56.272;43.922;2023-01-15T04:57:20;15.15;;;2.38;;
74892;SDS011;63446;56.272;43.922;2023-01-15T04:59:46;16.58;;;2.10;;
74892;SDS011;63446;56.272;43.922;2023-01-15T05:02:12;11.33;;;2.23;;
74892;SDS011;63446;56.272;43.922;2023-01-15T05:04:38;14.93;;;2.10;;
74892;SDS011;63446;56.272;43.922;2023-01-15T05:07:04;13.57;;;2.17;;
74892;SDS011;63446;56.272;43.922;2023-01-15T05:09:31;11.13;;;1.92;;
74892;SDS011;63446;56.272;43.922;2023-01-15T05:11:58;11.97;;;2.30;;
74892;SDS011;63446;56.272;43.922;2023-01-15T05:14:24;19.75;;;2.72;;
74892;SDS011;63446;56.272;43.922;2023-01-15T05:16:49;12.83;;;2.27;;
74892;SDS011;63446;56.272;43.922;2023-01-15T05:19:16;14.02;;;2.25;;
74892;SDS011;63446;56.272;43.922;2023-01-15T05:21:42;11.00;;;1.85;;
74892;SDS011;63446;56.272;43.922;2023-01-15T05:24:10;10.85;;;2.33;;
74892;SDS011;63446;56.272;43.922;2023-01-15T05:26:38;11.27;;;2.23;;
74892;SDS011;63446;56.272;43.922;2023-01-15T05:29:05;21.88;;;2.75;;
74892;SDS011;63446;56.272;43.922;2023-01-15T05:31:31;15.93;;;2.58;;
74892;SDS011;63446;56.272;43.922;2023-01-15T05:33:58;10.93;;;2.83;;
74892;SDS011;63446;56.272;43.922;2023-01-15T05:36:26;20.03;;;3.30;;
74892;SDS011;63446;56.272;43.922;2023-01-15T05:38:55;20.92;;;2.92;;
74892;SDS011;63446;56.272;43.922;2023-01-15T05:41:26;16.35;;;2.95;;
74892;SDS011;63446;56.272;43.922;2023-01-15T05:44:11;25.63;;;3.00;;
74892;SDS011;63446;56.272;43.922;2023-01-15T05:46:38;17.92;;;2.35;;
74892;SDS011;63446;56.272;43.922;2023-01-15T05:49:06;16.87;;;2.50;;
74892;SDS011;63446;56.272;43.922;2023-01-15T05:51:34;16.63;;;2.25;;
74892;SDS011;63446;56.272;43.922;2023-01-15T05:54:01;17.70;;;2.35;;
74892;SDS011;63446;56.272;43.922;2023-01-15T05:56:29;20.85;;;2.58;;
74892;SDS011;63446;56.272;43.922;2023-01-15T05:58:55;17.15;;;1.95;;
74892;SDS011;63446;56.272;43.922;2023-01-15T06:01:21;19.37;;;2.30;;
74892;SDS011;63446;56.272;43.922;2023-01-15T06:03:47;16.40;;;2.80;;
74892;SDS011;63446;56.272;43.922;2023-01-15T06:06:13;9.70;;;2.65;;
74892;SDS011;63446;56.272;43.922;2023-01-15T06:08:42;15.07;;;2.83;;
74892;SDS011;63446;56.272;43.922;2023-01-15T06:11:08;17.80;;;2.75;;
74892;SDS011;63446;56.272;43.922;2023-01-15T06:13:36;19.13;;;2.85;;
74892;SDS011;63446;56.272;43.922;2023-01-15T06:16:04;30.25;;;2.88;;
74892;SDS011;63446;56.272;43.922;2023-01-15T06:18:31;12.65;;;2.45;;
74892;SDS011;63446;56.272;43.922;2023-01-15T06:21:01;15.60;;;2.83;;
74892;SDS011;63446;56.272;43.922;2023-01-15T06:23:29;18.33;;;2.30;;
74892;SDS011;63446;56.272;43.922;2023-01-15T06:26:00;13.00;;;2.75;;
74892;SDS011;63446;56.272;43.922;2023-01-15T06:28:27;9.57;;;2.00;;
74892;SDS011;63446;56.272;43.922;2023-01-15T06:30:53;11.85;;;2.20;;
74892;SDS011;63446;56.272;43.922;2023-01-15T06:33:19;15.47;;;2.73;;
74892;SDS011;63446;56.272;43.922;2023-01-15T06:35:45;15.85;;;3.05;;
74892;SDS011;63446;56.272;43.922;2023-01-15T06:38:11;13.93;;;2.90;;
74892;SDS011;63446;56.272;43.922;2023-01-15T06:40:38;18.20;;;2.53;;
74892;SDS011;63446;56.272;43.922;2023-01-15T06:43:04;15.90;;;2.95;;
74892;SDS011;63446;56.272;43.922;2023-01-15T06:45:50;13.63;;;2.85;;
74892;SDS011;63446;56.272;43.922;2023-01-15T06:48:34;9.73;;;1.98;;
74892;SDS011;63446;56.272;43.922;2023-01-15T06:51:00;9.87;;;2.50;;
74892;SDS011;63446;56.272;43.922;2023-01-15T06:53:26;12.57;;;2.55;;
74892;SDS011;63446;56.272;43.922;2023-01-15T06:55:51;15.03;;;2.67;;
74892;SDS011;63446;56.272;43.922;2023-01-15T06:58:18;11.18;;;2.53;;
74892;SDS011;63446;56.272;43.922;2023-01-15T07:00:46;15.52;;;2.67;;
74892;SDS011;63446;56.272;43.922;2023-01-15T07:03:19;15.57;;;2.17;;
74892;SDS011;63446;56.272;43.922;2023-01-15T07:05:45;13.93;;;2.50;;
74892;SDS011;63446;56.272;43.922;2023-01-15T07:08:11;8.55;;;2.17;;
74892;SDS011;63446;56.272;43.922;2023-01-15T07:10:37;14.73;;;2.92;;
74892;SDS011;63446;56.272;43.922;2023-01-15T07:13:02;22.17;;;2.80;;
74892;SDS011;63446;56.272;43.922;2023-01-15T07:15:28;12.40;;;2.10;;
74892;SDS011;63446;56.272;43.922;2023-01-15T07:17:55;18.55;;;2.85;;
74892;SDS011;63446;56.272;43.922;2023-01-15T07:20:22;11.25;;;2.50;;
74892;SDS011;63446;56.272;43.922;2023-01-15T07:22:52;9.93;;;2.33;;
74892;SDS011;63446;56.272;43.922;2023-01-15T07:25:17;18.57;;;2.93;;
74892;SDS011;63446;56.272;43.922;2023-01-15T07:27:46;12.27;;;2.65;;
74892;SDS011;63446;56.272;43.922;2023-01-15T07:30:13;14.23;;;3.10;;
74892;SDS011;63446;56.272;43.922;2023-01-15T07:32:41;14.32;;;2.40;;
74892;SDS011;63446;56.272;43.922;2023-01-15T07:35:07;13.77;;;2.75;;
74892;SDS011;63446;56.272;43.922;2023-01-15T07:37:35;10.13;;;1.83;;
74892;SDS011;63446;56.272;43.922;2023-01-15T07:40:02;16.30;;;2.58;;
74892;SDS011;63446;56.272;43.922;2023-01-15T07:42:29;12.55;;;2.72;;
74892;SDS011;63446;56.272;43.922;2023-01-15T07:45:14;11.38;;;2.47;;
74892;SDS011;63446;56.272;43.922;2023-01-15T07:47:58;17.08;;;2.70;;
74892;SDS011;63446;56.272;43.922;2023-01-15T07:50:43;21.10;;;2.90;;
74892;SDS011;63446;56.272;43.922;2023-01-15T07:53:08;15.05;;;2.92;;
74892;SDS011;63446;56.272;43.922;2023-01-15T07:55:35;12.63;;;2.85;;
74892;SDS011;63446;56.272;43.922;2023-01-15T07:58:01;11.30;;;2.53;;
74892;SDS011;63446;56.272;43.922;2023-01-15T08:00:28;11.25;;;2.72;;
74892;SDS011;63446;56.272;43.922;2023-01-15T08:02:55;10.57;;;2.50;;
74892;SDS011;63446;56.272;43.922;2023-01-15T08:05:21;11.88;;;2.10;;
74892;SDS011;63446;56.272;43.922;2023-01-15T08:07:47;10.90;;;2.22;;
74892;SDS011;63446;56.272;43.922;2023-01-15T08:10:14;13.52;;;2.58;;
74892;SDS011;63446;56.272;43.922;2023-01-15T08:12:40;13.13;;;2.83;;
74892;SDS011;63446;56.272;43.922;2023-01-15T08:15:25;13.50;;;2.70;;
74892;SDS011;63446;56.272;43.922;2023-01-15T08:17:55;16.00;;;2.73;;
74892;SDS011;63446;56.272;43.922;2023-01-15T08:20:23;12.15;;;2.83;;
74892;SDS011;63446;56.272;43.922;2023-01-15T08:22:51;15.82;;;2.58;;
74892;SDS011;63446;56.272;43.922;2023-01-15T08:25:19;12.40;;;2.95;;
74892;SDS011;63446;56.272;43.922;2023-01-15T08:27:46;13.48;;;2.60;;
74892;SDS011;63446;56.272;43.922;2023-01-15T08:30:13;17.70;;;3.00;;
74892;SDS011;63446;56.272;43.922;2023-01-15T08:32:43;11.95;;;2.97;;
74892;SDS011;63446;56.272;43.922;2023-01-15T08:35:10;9.98;;;2.60;;
74892;SDS011;63446;56.272;43.922;2023-01-15T08:37:38;11.40;;;2.28;;
74892;SDS011;63446;56.272;43.922;2023-01-15T08:40:05;12.47;;;2.80;;
74892;SDS011;63446;56.272;43.922;2023-01-15T08:42:32;10.88;;;2.63;;
74892;SDS011;63446;56.272;43.922;2023-01-15T08:44:58;10.20;;;2.58;;
74892;SDS011;63446;56.272;43.922;2023-01-15T08:47:24;15.95;;;2.42;;
74892;SDS011;63446;56.272;43.922;2023-01-15T08:49:50;13.10;;;3.70;;
74892;SDS011;63446;56.272;43.922;2023-01-15T08:52:15;12.40;;;2.70;;
74892;SDS011;63446;56.272;43.922;2023-01-15T08:54:43;13.40;;;2.80;;
74892;SDS011;63446;56.272;43.922;2023-01-15T08:57:09;13.98;;;2.85;;
74892;SDS011;63446;56.272;43.922;2023-01-15T08:59:36;15.37;;;2.70;;
74892;SDS011;63446;56.272;43.922;2023-01-15T09:02:02;13.55;;;2.90;;
74892;SDS011;63446;56.272;43.922;2023-01-15T09:04:29;16.20;;;2.88;;
74892;SDS011;63446;56.272;43.922;2023-01-15T09:06:55;10.47;;;3.13;;
74892;SDS011;63446;56.272;43.922;2023-01-15T09:09:21;10.57;;;2.80;;
74892;SDS011;63446;56.272;43.922;2023-01-15T09:11:47;16.55;;;2.95;;
74892;SDS011;63446;56.272;43.922;2023-01-15T09:14:14;10.57;;;3.00;;
74892;SDS011;63446;56.272;43.922;2023-01-15T09:16:41;15.18;;;3.08;;
74892;SDS011;63446;56.272;43.922;2023-01-15T09:19:08;14.90;;;2.65;;
74892;SDS011;63446;56.272;43.922;2023-01-15T09:21:36;14.90;;;2.90;;
74892;SDS011;63446;56.272;43.922;2023-01-15T09:24:02;10.27;;;3.33;;
74892;SDS011;63446;56.272;43.922;2023-01-15T09:26:33;9.15;;;2.63;;
74892;SDS011;63446;56.272;43.922;2023-01-15T09:28:59;15.88;;;2.88;;
74892;SDS011;63446;56.272;43.922;2023-01-15T09:31:27;13.68;;;3.00;;
74892;SDS011;63446;56.272;43.922;2023-01-15T09:33:53;20.13;;;3.20;;
74892;SDS011;63446;56.272;43.922;2023-01-15T09:36:22;15.27;;;3.40;;
74892;SDS011;63446;56.272;43.922;2023-01-15T09:38:57;9.73;;;2.70;;
74892;SDS011;63446;56.272;43.922;2023-01-15T09:41:24;14.45;;;3.17;;
74892;SDS011;63446;56.272;43.922;2023-01-15T09:44:19;13.32;;;2.78;;
74892;SDS011;63446;56.272;43.922;2023-01-15T09:46:56;15.13;;;2.73;;
74892;SDS011;63446;56.272;43.922;2023-01-15T09:49:33;7.82;;;2.47;;
74892;SDS011;63446;56.272;43.922;2023-01-15T09:57:38;13.98;;;2.95;;
74892;SDS011;63446;56.272;43.922;2023-01-15T10:00:05;11.87;;;3.27;;
74892;SDS011;63446;56.272;43.922;2023-01-15T10:02:47;15.20;;;3.05;;
74892;SDS011;63446;56.272;43.922;2023-01-15T10:07:59;14.27;;;2.90;;
74892;SDS011;63446;56.272;43.922;2023-01-15T10:10:47;11.50;;;2.72;;
74892;SDS011;63446;56.272;43.922;2023-01-15T10:13:20;11.97;;;2.80;;
74892;SDS011;63446;56.272;43.922;2023-01-15T10:15:47;9.85;;;2.80;;
74892;SDS011;63446;56.272;43.922;2023-01-15T10:18:17;15.20;;;3.40;;
74892;SDS011;63446;56.272;43.922;2023-01-15T10:34:37;12.35;;;3.10;;
74892;SDS011;63446;56.272;43.922;2023-01-15T10:37:12;10.65;;;2.85;;
74892;SDS011;63446;56.272;43.922;2023-01-15T10:42:26;15.05;;;3.05;;
74892;SDS011;63446;56.272;43.922;2023-01-15T10:45:16;11.32;;;3.33;;
74892;SDS011;63446;56.272;43.922;2023-01-15T10:47:47;13.05;;;2.97;;
74892;SDS011;63446;56.272;43.922;2023-01-15T10:50:27;14.65;;;2.92;;
74892;SDS011;63446;56.272;43.922;2023-01-15T10:53:00;13.20;;;3.23;;
74892;SDS011;63446;56.272;43.922;2023-01-15T10:55:35;13.57;;;3.13;;
74892;SDS011;63446;56.272;43.922;2023-01-15T11:00:37;9.85;;;2.47;;
74892;SDS011;63446;56.272;43.922;2023-01-15T11:03:05;15.70;;;2.60;;
74892;SDS011;63446;56.272;43.922;2023-01-15T11:05:39;12.23;;;2.75;;
74892;SDS011;63446;56.272;43.922;2023-01-15T11:08:06;9.57;;;2.92;;
74892;SDS011;63446;56.272;43.922;2023-01-15T11:10:38;13.18;;;2.33;;
74892;SDS011;63446;56.272;43.922;2023-01-15T11:16:02;10.67;;;2.80;;
74892;SDS011;63446;56.272;43.922;2023-01-15T11:18:47;10.20;;;2.78;;
74892;SDS011;63446;56.272;43.922;2023-01-15T11:21:32;12.73;;;3.25;;
74892;SDS011;63446;56.272;43.922;2023-01-15T11:23:58;8.27;;;2.80;;
74892;SDS011;63446;56.272;43.922;2023-01-15T11:26:27;22.80;;;3.65;;
74892;SDS011;63446;56.272;43.922;2023-01-15T11:28:56;14.97;;;2.93;;
74892;SDS011;63446;56.272;43.922;2023-01-15T11:31:34;10.05;;;3.25;;
74892;SDS011;63446;56.272;43.922;2023-01-15T11:34:03;12.43;;;3.15;;
74892;SDS011;63446;56.272;43.922;2023-01-15T11:36:32;10.30;;;2.40;;
74892;SDS011;63446;56.272;43.922;2023-01-15T11:38:58;12.23;;;3.15;;
74892;SDS011;63446;56.272;43.922;2023-01-15T11:41:28;20.83;;;3.20;;
74892;SDS011;63446;56.272;43.922;2023-01-15T11:44:16;10.70;;;3.00;;
74892;SDS011;63446;56.272;43.922;2023-01-15T11:47:09;13.35;;;3.03;;
74892;SDS011;63446;56.272;43.922;2023-01-15T11:49:55;15.87;;;3.03;;
74892;SDS011;63446;56.272;43.922;2023-01-15T11:52:45;12.52;;;2.75;;
74892;SDS011;63446;56.272;43.922;2023-01-15T11:55:18;10.18;;;3.13;;
74892;SDS011;63446;56.272;43.922;2023-01-15T11:57:47;14.18;;;3.05;;
74892;SDS011;63446;56.272;43.922;2023-01-15T12:00:21;12.90;;;3.03;;
74892;SDS011;63446;56.272;43.922;2023-01-15T12:02:48;13.30;;;2.97;;
74892;SDS011;63446;56.272;43.922;2023-01-15T12:05:17;19.98;;;3.00;;
74892;SDS011;63446;56.272;43.922;2023-01-15T12:07:47;16.75;;;3.97;;
74892;SDS011;63446;56.272;43.922;2023-01-15T12:10:17;11.60;;;2.75;;
74892;SDS011;63446;56.272;43.922;2023-01-15T12:13:08;12.75;;;3.10;;
74892;SDS011;63446;56.272;43.922;2023-01-15T12:18:43;14.70;;;3.67;;
74892;SDS011;63446;56.272;43.922;2023-01-15T12:26:34;17.08;;;3.20;;
74892;SDS011;63446;56.272;43.922;2023-01-15T12:29:25;15.13;;;3.67;;
74892;SDS011;63446;56.272;43.922;2023-01-15T12:32:10;11.95;;;3.13;;
74892;SDS011;63446;56.272;43.922;2023-01-15T12:37:26;15.95;;;3.20;;
74892;SDS011;63446;56.272;43.922;2023-01-15T12:42:23;9.17;;;2.63;;
74892;SDS011;63446;56.272;43.922;2023-01-15T12:50:41;12.63;;;2.58;;
74892;SDS011;63446;56.272;43.922;2023-01-15T12:53:29;18.55;;;3.38;;
74892;SDS011;63446;56.272;43.922;2023-01-15T13:06:26;12.60;;;2.73;;
74892;SDS011;63446;56.272;43.922;2023-01-15T13:11:35;10.80;;;2.60;;
74892;SDS011;63446;56.272;43.922;2023-01-15T13:14:01;13.03;;;3.13;;
74892;SDS011;63446;56.272;43.922;2023-01-15T13:17:10;12.90;;;3.00;;
74892;SDS011;63446;56.272;43.922;2023-01-15T13:19:30;13.88;;;3.05;;
74892;SDS011;63446;56.272;43.922;2023-01-15T13:22:07;12.88;;;2.78;;
74892;SDS011;63446;56.272;43.922;2023-01-15T13:32:44;15.20;;;3.13;;
74892;SDS011;63446;56.272;43.922;2023-01-15T13:38:01;15.30;;;3.83;;
74892;SDS011;63446;56.272;43.922;2023-01-15T13:43:08;9.82;;;2.90;;
74892;SDS011;63446;56.272;43.922;2023-01-15T13:45:55;15.25;;;3.30;;
74892;SDS011;63446;56.272;43.922;2023-01-15T13:48:32;17.30;;;4.18;;
74892;SDS011;63446;56.272;43.922;2023-01-15T13:51:01;21.70;;;3.78;;
74892;SDS011;63446;56.272;43.922;2023-01-15T13:56:03;11.40;;;2.90;;
74892;SDS011;63446;56.272;43.922;2023-01-15T13:58:53;13.13;;;3.10;;
74892;SDS011;63446;56.272;43.922;2023-01-15T14:01:33;15.95;;;3.40;;
74892;SDS011;63446;56.272;43.922;2023-01-15T14:04:12;11.30;;;3.13;;
74892;SDS011;63446;56.272;43.922;2023-01-15T14:06:41;14.07;;;3.00;;
74892;SDS011;63446;56.272;43.922;2023-01-15T14:09:09;21.52;;;3.50;;
74892;SDS011;63446;56.272;43.922;2023-01-15T14:14:48;14.90;;;3.60;;
74892;SDS011;63446;56.272;43.922;2023-01-15T14:20:03;17.10;;;3.27;;
74892;SDS011;63446;56.272;43.922;2023-01-15T14:23:07;13.55;;;3.10;;
74892;SDS011;63446;56.272;43.922;2023-01-15T14:36:45;13.68;;;2.85;;
74892;SDS011;63446;56.272;43.922;2023-01-15T14:47:43;22.13;;;3.43;;
74892;SDS011;63446;56.272;43.922;2023-01-15T14:58:30;16.10;;;2.90;;
74892;SDS011;63446;56.272;43.922;2023-01-15T15:03:56;16.48;;;3.10;;
74892;SDS011;63446;56.272;43.922;2023-01-15T15:06:30;15.52;;;3.20;;
74892;SDS011;63446;56.272;43.922;2023-01-15T15:08:58;13.32;;;3.03;;
74892;SDS011;63446;56.272;43.922;2023-01-15T15:11:38;10.27;;;3.00;;
74892;SDS011;63446;56.272;43.922;2023-01-15T15:14:27;14.50;;;3.27;;
74892;SDS011;63446;56.272;43.922;2023-01-15T15:16:54;21.40;;;3.28;;
74892;SDS011;63446;56.272;43.922;2023-01-15T15:19:26;20.20;;;2.97;;
74892;SDS011;63446;56.272;43.922;2023-01-15T15:22:01;24.05;;;3.33;;
74892;SDS011;63446;56.272;43.922;2023-01-15T15:24:31;23.05;;;3.47;;
74892;SDS011;63446;56.272;43.922;2023-01-15T15:27:19;20.87;;;3.23;;
74892;SDS011;63446;56.272;43.922;2023-01-15T15:29:47;15.05;;;2.97;;
74892;SDS011;63446;56.272;43.922;2023-01-15T15:32:15;15.50;;;2.55;;
74892;SDS011;63446;56.272;43.922;2023-01-15T15:34:45;11.90;;;3.47;;
74892;SDS011;63446;56.272;43.922;2023-01-15T15:37:18;18.27;;;3.28;;
74892;SDS011;63446;56.272;43.922;2023-01-15T15:42:23;18.77;;;3.03;;
74892;SDS011;63446;56.272;43.922;2023-01-15T15:45:33;22.08;;;3.40;;
74892;SDS011;63446;56.272;43.922;2023-01-15T15:48:21;13.98;;;3.20;;
74892;SDS011;63446;56.272;43.922;2023-01-15T15:56:31;19.65;;;3.50;;
74892;SDS011;63446;56.272;43.922;2023-01-15T15:58:58;18.23;;;3.70;;
74892;SDS011;63446;56.272;43.922;2023-01-15T16:01:24;23.88;;;3.72;;
74892;SDS011;63446;56.272;43.922;2023-01-15T16:03:50;25.23;;;3.35;;
74892;SDS011;63446;56.272;43.922;2023-01-15T16:06:20;13.85;;;3.30;;
74892;SDS011;63446;56.272;43.922;2023-01-15T16:08:51;13.40;;;3.45;;
74892;SDS011;63446;56.272;43.922;2023-01-15T16:11:29;20.80;;;3.95;;
74892;SDS011;63446;56.272;43.922;2023-01-15T16:13:57;11.63;;;3.17;;
74892;SDS011;63446;56.272;43.922;2023-01-15T16:16:28;20.50;;;3.47;;
74892;SDS011;63446;56.272;43.922;2023-01-15T16:18:55;16.65;;;3.75;;
74892;SDS011;63446;56.272;43.922;2023-01-15T16:24:06;19.27;;;3.50;;
74892;SDS011;63446;56.272;43.922;2023-01-15T16:26:35;12.67;;;2.93;;
74892;SDS011;63446;56.272;43.922;2023-01-15T16:29:05;21.48;;;3.58;;
74892;SDS011;63446;56.272;43.922;2023-01-15T16:31:42;20.38;;;3.67;;
74892;SDS011;63446;56.272;43.922;2023-01-15T16:34:15;15.90;;;3.08;;
74892;SDS011;63446;56.272;43.922;2023-01-15T16:36:48;15.97;;;3.43;;
74892;SDS011;63446;56.272;43.922;2023-01-15T16:39:36;21.50;;;4.22;;
74892;SDS011;63446;56.272;43.922;2023-01-15T16:42:21;18.73;;;3.10;;
74892;SDS011;63446;56.272;43.922;2023-01-15T16:44:50;17.95;;;2.85;;
74892;SDS011;63446;56.272;43.922;2023-01-15T16:47:21;22.02;;;3.50;;
74892;SDS011;63446;56.272;43.922;2023-01-15T16:49:50;15.57;;;3.33;;
74892;SDS011;63446;56.272;43.922;2023-01-15T17:00:37;17.77;;;3.85;;
74892;SDS011;63446;56.272;43.922;2023-01-15T17:06:01;18.08;;;3.55;;
74892;SDS011;63446;56.272;43.922;2023-01-15T17:08:36;13.68;;;3.13;;
74892;SDS011;63446;56.272;43.922;2023-01-15T17:11:16;15.10;;;2.90;;
74892;SDS011;63446;56.272;43.922;2023-01-15T17:13:45;25.33;;;3.67;;
74892;SDS011;63446;56.272;43.922;2023-01-15T17:18:37;20.23;;;2.70;;
74892;SDS011;63446;56.272;43.922;2023-01-15T17:21:04;21.20;;;3.15;;
74892;SDS011;63446;56.272;43.922;2023-01-15T17:23:38;19.10;;;2.92;;
74892;SDS011;63446;56.272;43.922;2023-01-15T17:26:06;18.58;;;3.35;;
74892;SDS011;63446;56.272;43.922;2023-01-15T17:28:41;15.83;;;4.10;;
74892;SDS011;63446;56.272;43.922;2023-01-15T17:31:11;19.98;;;3.05;;